sensor_id;sensor_type;location;lat;lon;timestamp;P1;durP1;ratioP1;P2;durP2;ratioP2
1693;SDS011;844;47.058;15.472;2022-11-20T00:00:19;25.07;;;19.40;;
1693;SDS011;844;47.058;15.472;2022-11-20T00:02:49;23.30;;;16.97;;
1693;SDS011;844;47.058;15.472;2022-11-20T00:05:19;23.70;;;17.20;;
1693;SDS011;844;47.058;15.472;2022-11-20T00:07:49;23.10;;;18.00;;
1693;SDS011;844;47.058;15.472;2022-11-20T00:10:20;22.17;;;18.30;;
1693;SDS011;844;47.058;15.472;2022-11-20T00:12:50;22.53;;;18.30;;
1693;SDS011;844;47.058;15.472;2022-11-20T00:15:20;20.63;;;17.70;;
1693;SDS011;844;47.058;15.472;2022-11-20T00:17:50;25.07;;;19.13;;
1693;SDS011;844;47.058;15.472;2022-11-20T00:20:19;20.50;;;16.77;;
1693;SDS011;844;47.058;15.472;2022-11-20T00:22:49;24.13;;;17.37;;
1693;SDS011;844;47.058;15.472;2022-11-20T00:25:21;26.53;;;18.43;;
1693;SDS011;844;47.058;15.472;2022-11-20T00:27:51;21.70;;;17.67;;
1693;SDS011;844;47.058;15.472;2022-11-20T00:30:21;25.03;;;17.73;;
1693;SDS011;844;47.058;15.472;2022-11-20T00:32:51;22.87;;;17.10;;
1693;SDS011;844;47.058;15.472;2022-11-20T00:35:21;27.67;;;18.60;;
1693;SDS011;844;47.058;15.472;2022-11-20T00:37:51;23.80;;;17.57;;
1693;SDS011;844;47.058;15.472;2022-11-20T00:40:22;24.17;;;18.33;;
1693;SDS011;844;47.058;15.472;2022-11-20T00:42:53;25.87;;;19.00;;
1693;SDS011;844;47.058;15.472;2022-11-20T00:45:23;23.10;;;18.10;;
1693;SDS011;844;47.058;15.472;2022-11-20T00:47:52;22.97;;;18.30;;
1693;SDS011;844;47.058;15.472;2022-11-20T00:50:22;24.03;;;18.13;;
1693;SDS011;844;47.058;15.472;2022-11-20T00:52:52;23.27;;;18.83;;
1693;SDS011;844;47.058;15.472;2022-11-20T00:55:23;23.57;;;19.13;;
1693;SDS011;844;47.058;15.472;2022-11-20T00:57:53;20.83;;;18.37;;
1693;SDS011;844;47.058;15.472;2022-11-20T01:00:23;24.30;;;18.63;;
1693;SDS011;844;47.058;15.472;2022-11-20T01:02:55;25.77;;;18.20;;
1693;SDS011;844;47.058;15.472;2022-11-20T01:05:24;28.20;;;19.60;;
1693;SDS011;844;47.058;15.472;2022-11-20T01:07:54;26.70;;;18.93;;
1693;SDS011;844;47.058;15.472;2022-11-20T01:10:26;25.30;;;20.30;;
1693;SDS011;844;47.058;15.472;2022-11-20T01:12:56;22.30;;;17.80;;
1693;SDS011;844;47.058;15.472;2022-11-20T01:15:40;20.13;;;17.20;;
1693;SDS011;844;47.058;15.472;2022-11-20T01:18:10;23.70;;;18.77;;
1693;SDS011;844;47.058;15.472;2022-11-20T01:20:39;22.00;;;17.10;;
1693;SDS011;844;47.058;15.472;2022-11-20T01:23:09;21.27;;;17.77;;
1693;SDS011;844;47.058;15.472;2022-11-20T01:25:41;20.20;;;18.03;;
1693;SDS011;844;47.058;15.472;2022-11-20T01:28:10;23.63;;;17.30;;
1693;SDS011;844;47.058;15.472;2022-11-20T01:30:40;26.23;;;18.00;;
1693;SDS011;844;47.058;15.472;2022-11-20T01:33:10;24.97;;;19.87;;
1693;SDS011;844;47.058;15.472;2022-11-20T01:35:40;23.47;;;18.57;;
1693;SDS011;844;47.058;15.472;2022-11-20T01:38:09;25.60;;;19.20;;
1693;SDS011;844;47.058;15.472;2022-11-20T01:40:41;22.77;;;17.43;;
1693;SDS011;844;47.058;15.472;2022-11-20T01:43:12;20.70;;;16.83;;
1693;SDS011;844;47.058;15.472;2022-11-20T01:48:34;21.10;;;16.67;;
1693;SDS011;844;47.058;15.472;2022-11-20T01:51:10;20.03;;;17.07;;
1693;SDS011;844;47.058;15.472;2022-11-20T01:53:44;22.30;;;16.43;;
1693;SDS011;844;47.058;15.472;2022-11-20T01:56:16;20.77;;;16.77;;
1693;SDS011;844;47.058;15.472;2022-11-20T01:58:48;22.40;;;17.50;;
1693;SDS011;844;47.058;15.472;2022-11-20T02:01:21;21.10;;;16.17;;
1693;SDS011;844;47.058;15.472;2022-11-20T02:03:51;19.53;;;16.67;;
1693;SDS011;844;47.058;15.472;2022-11-20T02:06:22;22.53;;;17.93;;
1693;SDS011;844;47.058;15.472;2022-11-20T02:08:54;25.33;;;17.33;;
1693;SDS011;844;47.058;15.472;2022-11-20T02:11:25;23.07;;;18.23;;
1693;SDS011;844;47.058;15.472;2022-11-20T02:13:55;24.63;;;18.47;;
1693;SDS011;844;47.058;15.472;2022-11-20T02:16:25;20.57;;;15.07;;
1693;SDS011;844;47.058;15.472;2022-11-20T02:18:57;24.60;;;17.97;;
1693;SDS011;844;47.058;15.472;2022-11-20T02:21:32;24.73;;;17.77;;
1693;SDS011;844;47.058;15.472;2022-11-20T02:24:07;20.87;;;17.03;;
1693;SDS011;844;47.058;15.472;2022-11-20T02:26:41;22.30;;;18.07;;
1693;SDS011;844;47.058;15.472;2022-11-20T02:29:15;22.50;;;17.70;;
1693;SDS011;844;47.058;15.472;2022-11-20T02:31:47;20.80;;;15.80;;
1693;SDS011;844;47.058;15.472;2022-11-20T02:34:17;21.20;;;16.80;;
1693;SDS011;844;47.058;15.472;2022-11-20T02:36:46;18.93;;;15.20;;
1693;SDS011;844;47.058;15.472;2022-11-20T02:39:20;20.17;;;16.47;;
1693;SDS011;844;47.058;15.472;2022-11-20T02:41:50;19.50;;;15.03;;
1693;SDS011;844;47.058;15.472;2022-11-20T02:44:22;20.67;;;15.90;;
1693;SDS011;844;47.058;15.472;2022-11-20T02:46:52;21.67;;;18.00;;
1693;SDS011;844;47.058;15.472;2022-11-20T02:49:22;23.30;;;16.03;;
1693;SDS011;844;47.058;15.472;2022-11-20T02:51:52;23.83;;;18.40;;
1693;SDS011;844;47.058;15.472;2022-11-20T02:54:24;20.23;;;16.53;;
1693;SDS011;844;47.058;15.472;2022-11-20T02:56:53;17.63;;;15.37;;
1693;SDS011;844;47.058;15.472;2022-11-20T02:59:23;19.53;;;16.10;;
1693;SDS011;844;47.058;15.472;2022-11-20T03:01:53;22.07;;;17.97;;
1693;SDS011;844;47.058;15.472;2022-11-20T03:04:23;22.03;;;16.80;;
1693;SDS011;844;47.058;15.472;2022-11-20T03:06:52;22.27;;;16.20;;
1693;SDS011;844;47.058;15.472;2022-11-20T03:09:25;20.20;;;16.27;;
1693;SDS011;844;47.058;15.472;2022-11-20T03:11:54;22.67;;;17.33;;
1693;SDS011;844;47.058;15.472;2022-11-20T03:14:24;19.07;;;16.93;;
1693;SDS011;844;47.058;15.472;2022-11-20T03:16:55;21.77;;;17.20;;
1693;SDS011;844;47.058;15.472;2022-11-20T03:19:25;19.80;;;15.53;;
1693;SDS011;844;47.058;15.472;2022-11-20T03:21:54;17.57;;;13.73;;
1693;SDS011;844;47.058;15.472;2022-11-20T03:24:26;16.33;;;13.30;;
1693;SDS011;844;47.058;15.472;2022-11-20T03:26:56;16.40;;;14.70;;
1693;SDS011;844;47.058;15.472;2022-11-20T03:29:25;18.33;;;14.33;;
1693;SDS011;844;47.058;15.472;2022-11-20T03:31:55;12.30;;;11.00;;
1693;SDS011;844;47.058;15.472;2022-11-20T03:34:25;19.03;;;12.37;;
1693;SDS011;844;47.058;15.472;2022-11-20T03:36:55;16.30;;;12.47;;
1693;SDS011;844;47.058;15.472;2022-11-20T03:39:26;13.33;;;11.03;;
1693;SDS011;844;47.058;15.472;2022-11-20T03:41:56;16.30;;;11.33;;
1693;SDS011;844;47.058;15.472;2022-11-20T03:44:26;11.53;;;9.60;;
1693;SDS011;844;47.058;15.472;2022-11-20T03:46:55;11.53;;;9.87;;
1693;SDS011;844;47.058;15.472;2022-11-20T03:49:25;12.87;;;11.50;;
1693;SDS011;844;47.058;15.472;2022-11-20T03:51:56;16.00;;;12.43;;
1693;SDS011;844;47.058;15.472;2022-11-20T03:54:27;15.90;;;12.73;;
1693;SDS011;844;47.058;15.472;2022-11-20T03:56:57;11.40;;;10.20;;
1693;SDS011;844;47.058;15.472;2022-11-20T03:59:26;11.40;;;10.00;;
1693;SDS011;844;47.058;15.472;2022-11-20T04:01:56;11.13;;;9.70;;
1693;SDS011;844;47.058;15.472;2022-11-20T04:04:25;10.90;;;8.70;;
1693;SDS011;844;47.058;15.472;2022-11-20T04:06:55;9.33;;;8.43;;
1693;SDS011;844;47.058;15.472;2022-11-20T04:09:26;10.40;;;8.87;;
1693;SDS011;844;47.058;15.472;2022-11-20T04:11:56;13.57;;;10.90;;
1693;SDS011;844;47.058;15.472;2022-11-20T04:14:26;14.23;;;10.77;;
1693;SDS011;844;47.058;15.472;2022-11-20T04:16:56;12.43;;;11.13;;
1693;SDS011;844;47.058;15.472;2022-11-20T04:19:25;13.67;;;11.20;;
1693;SDS011;844;47.058;15.472;2022-11-20T04:21:55;13.70;;;12.30;;
1693;SDS011;844;47.058;15.472;2022-11-20T04:24:27;16.50;;;13.97;;
1693;SDS011;844;47.058;15.472;2022-11-20T04:26:57;15.40;;;12.43;;
1693;SDS011;844;47.058;15.472;2022-11-20T04:29:27;15.40;;;11.30;;
1693;SDS011;844;47.058;15.472;2022-11-20T04:31:56;13.30;;;11.40;;
1693;SDS011;844;47.058;15.472;2022-11-20T04:34:26;10.97;;;9.90;;
1693;SDS011;844;47.058;15.472;2022-11-20T04:36:56;10.23;;;9.00;;
1693;SDS011;844;47.058;15.472;2022-11-20T04:39:27;12.47;;;10.10;;
1693;SDS011;844;47.058;15.472;2022-11-20T04:41:57;12.37;;;9.87;;
1693;SDS011;844;47.058;15.472;2022-11-20T04:44:40;12.83;;;9.93;;
1693;SDS011;844;47.058;15.472;2022-11-20T04:47:10;11.63;;;8.77;;
1693;SDS011;844;47.058;15.472;2022-11-20T04:49:40;10.80;;;9.70;;
1693;SDS011;844;47.058;15.472;2022-11-20T04:52:10;11.20;;;9.67;;
1693;SDS011;844;47.058;15.472;2022-11-20T04:54:41;12.70;;;8.83;;
1693;SDS011;844;47.058;15.472;2022-11-20T04:57:12;11.10;;;8.83;;
1693;SDS011;844;47.058;15.472;2022-11-20T04:59:43;12.10;;;10.23;;
1693;SDS011;844;47.058;15.472;2022-11-20T05:02:13;12.70;;;10.43;;
1693;SDS011;844;47.058;15.472;2022-11-20T05:04:42;11.97;;;10.23;;
1693;SDS011;844;47.058;15.472;2022-11-20T05:07:12;13.97;;;12.57;;
1693;SDS011;844;47.058;15.472;2022-11-20T05:09:43;14.87;;;13.20;;
1693;SDS011;844;47.058;15.472;2022-11-20T05:12:13;21.63;;;16.07;;
1693;SDS011;844;47.058;15.472;2022-11-20T05:14:43;22.60;;;14.97;;
1693;SDS011;844;47.058;15.472;2022-11-20T05:17:13;19.60;;;13.90;;
1693;SDS011;844;47.058;15.472;2022-11-20T05:19:42;16.70;;;14.37;;
1693;SDS011;844;47.058;15.472;2022-11-20T05:22:19;18.63;;;14.93;;
1693;SDS011;844;47.058;15.472;2022-11-20T05:24:51;18.90;;;17.00;;
1693;SDS011;844;47.058;15.472;2022-11-20T05:27:21;20.00;;;16.03;;
1693;SDS011;844;47.058;15.472;2022-11-20T05:29:51;19.07;;;16.60;;
1693;SDS011;844;47.058;15.472;2022-11-20T05:32:22;18.27;;;15.17;;
1693;SDS011;844;47.058;15.472;2022-11-20T05:34:53;19.87;;;15.87;;
1693;SDS011;844;47.058;15.472;2022-11-20T05:37:23;18.70;;;15.77;;
1693;SDS011;844;47.058;15.472;2022-11-20T05:39:57;22.13;;;16.27;;
1693;SDS011;844;47.058;15.472;2022-11-20T05:42:30;23.57;;;18.27;;
1693;SDS011;844;47.058;15.472;2022-11-20T05:45:01;20.40;;;16.33;;
1693;SDS011;844;47.058;15.472;2022-11-20T05:47:33;22.13;;;17.30;;
1693;SDS011;844;47.058;15.472;2022-11-20T05:50:03;20.70;;;17.40;;
1693;SDS011;844;47.058;15.472;2022-11-20T05:52:33;22.37;;;18.87;;
1693;SDS011;844;47.058;15.472;2022-11-20T05:55:05;20.53;;;17.07;;
1693;SDS011;844;47.058;15.472;2022-11-20T05:57:37;23.30;;;16.30;;
1693;SDS011;844;47.058;15.472;2022-11-20T06:00:09;22.80;;;17.23;;
1693;SDS011;844;47.058;15.472;2022-11-20T06:02:41;21.50;;;16.97;;
1693;SDS011;844;47.058;15.472;2022-11-20T06:05:11;22.20;;;17.10;;
1693;SDS011;844;47.058;15.472;2022-11-20T06:07:41;23.67;;;18.30;;
1693;SDS011;844;47.058;15.472;2022-11-20T06:10:12;22.80;;;20.10;;
1693;SDS011;844;47.058;15.472;2022-11-20T06:12:42;22.50;;;16.83;;
1693;SDS011;844;47.058;15.472;2022-11-20T06:15:12;27.10;;;19.13;;
1693;SDS011;844;47.058;15.472;2022-11-20T06:17:42;24.30;;;18.90;;
1693;SDS011;844;47.058;15.472;2022-11-20T06:20:12;22.60;;;18.30;;
1693;SDS011;844;47.058;15.472;2022-11-20T06:22:42;24.20;;;19.07;;
1693;SDS011;844;47.058;15.472;2022-11-20T06:25:14;20.80;;;16.60;;
1693;SDS011;844;47.058;15.472;2022-11-20T06:27:46;17.83;;;14.03;;
1693;SDS011;844;47.058;15.472;2022-11-20T06:30:16;20.33;;;15.37;;
1693;SDS011;844;47.058;15.472;2022-11-20T06:32:48;16.70;;;14.37;;
1693;SDS011;844;47.058;15.472;2022-11-20T06:35:17;18.00;;;15.00;;
1693;SDS011;844;47.058;15.472;2022-11-20T06:37:48;16.30;;;12.93;;
1693;SDS011;844;47.058;15.472;2022-11-20T06:40:20;22.83;;;15.53;;
1693;SDS011;844;47.058;15.472;2022-11-20T06:42:49;16.77;;;14.67;;
1693;SDS011;844;47.058;15.472;2022-11-20T06:45:19;17.80;;;14.20;;
1693;SDS011;844;47.058;15.472;2022-11-20T06:47:49;16.20;;;14.47;;
1693;SDS011;844;47.058;15.472;2022-11-20T06:50:20;18.37;;;14.10;;
1693;SDS011;844;47.058;15.472;2022-11-20T06:52:52;16.40;;;12.77;;
1693;SDS011;844;47.058;15.472;2022-11-20T06:55:26;16.13;;;13.43;;
1693;SDS011;844;47.058;15.472;2022-11-20T06:58:00;16.40;;;13.90;;
1693;SDS011;844;47.058;15.472;2022-11-20T07:00:32;15.00;;;13.17;;
1693;SDS011;844;47.058;15.472;2022-11-20T07:03:06;17.73;;;13.67;;
1693;SDS011;844;47.058;15.472;2022-11-20T07:05:39;18.00;;;13.47;;
1693;SDS011;844;47.058;15.472;2022-11-20T07:08:11;15.17;;;13.60;;
1693;SDS011;844;47.058;15.472;2022-11-20T07:10:42;13.50;;;10.40;;
1693;SDS011;844;47.058;15.472;2022-11-20T07:13:12;16.03;;;12.57;;
1693;SDS011;844;47.058;15.472;2022-11-20T07:15:42;14.10;;;12.17;;
1693;SDS011;844;47.058;15.472;2022-11-20T07:18:13;14.63;;;11.67;;
1693;SDS011;844;47.058;15.472;2022-11-20T07:20:45;18.43;;;14.03;;
1693;SDS011;844;47.058;15.472;2022-11-20T07:23:18;17.07;;;13.60;;
1693;SDS011;844;47.058;15.472;2022-11-20T07:25:49;13.80;;;12.40;;
1693;SDS011;844;47.058;15.472;2022-11-20T07:28:20;14.50;;;11.87;;
1693;SDS011;844;47.058;15.472;2022-11-20T07:30:52;16.27;;;14.23;;
1693;SDS011;844;47.058;15.472;2022-11-20T07:33:25;16.00;;;13.13;;
1693;SDS011;844;47.058;15.472;2022-11-20T07:35:55;14.97;;;13.37;;
1693;SDS011;844;47.058;15.472;2022-11-20T07:38:27;15.17;;;12.17;;
1693;SDS011;844;47.058;15.472;2022-11-20T07:41:02;15.17;;;12.20;;
1693;SDS011;844;47.058;15.472;2022-11-20T07:43:36;14.77;;;11.67;;
1693;SDS011;844;47.058;15.472;2022-11-20T07:46:07;15.40;;;10.83;;
1693;SDS011;844;47.058;15.472;2022-11-20T07:48:37;15.00;;;12.83;;
1693;SDS011;844;47.058;15.472;2022-11-20T07:51:07;13.77;;;12.27;;
1693;SDS011;844;47.058;15.472;2022-11-20T07:53:37;17.20;;;13.23;;
1693;SDS011;844;47.058;15.472;2022-11-20T07:56:12;17.50;;;14.07;;
1693;SDS011;844;47.058;15.472;2022-11-20T07:58:44;16.60;;;13.43;;
1693;SDS011;844;47.058;15.472;2022-11-20T08:01:17;19.53;;;12.93;;
1693;SDS011;844;47.058;15.472;2022-11-20T08:03:46;16.17;;;14.00;;
1693;SDS011;844;47.058;15.472;2022-11-20T08:06:16;18.17;;;13.93;;
1693;SDS011;844;47.058;15.472;2022-11-20T08:08:49;13.37;;;11.97;;
1693;SDS011;844;47.058;15.472;2022-11-20T08:11:20;19.33;;;13.03;;
1693;SDS011;844;47.058;15.472;2022-11-20T08:14:07;14.50;;;12.37;;
1693;SDS011;844;47.058;15.472;2022-11-20T08:16:41;16.17;;;13.10;;
1693;SDS011;844;47.058;15.472;2022-11-20T08:19:13;17.13;;;13.77;;
1693;SDS011;844;47.058;15.472;2022-11-20T08:21:47;16.10;;;13.17;;
1693;SDS011;844;47.058;15.472;2022-11-20T08:24:17;16.97;;;14.93;;
1693;SDS011;844;47.058;15.472;2022-11-20T08:26:51;18.03;;;13.87;;
1693;SDS011;844;47.058;15.472;2022-11-20T08:29:20;17.10;;;13.47;;
1693;SDS011;844;47.058;15.472;2022-11-20T08:31:50;14.93;;;12.03;;
1693;SDS011;844;47.058;15.472;2022-11-20T08:34:21;18.50;;;14.17;;
1693;SDS011;844;47.058;15.472;2022-11-20T08:36:51;15.80;;;14.20;;
1693;SDS011;844;47.058;15.472;2022-11-20T08:39:20;18.67;;;14.00;;
1693;SDS011;844;47.058;15.472;2022-11-20T08:41:52;18.40;;;14.47;;
1693;SDS011;844;47.058;15.472;2022-11-20T08:44:22;14.27;;;12.77;;
1693;SDS011;844;47.058;15.472;2022-11-20T08:46:52;16.37;;;13.90;;
1693;SDS011;844;47.058;15.472;2022-11-20T08:49:26;16.83;;;13.83;;
1693;SDS011;844;47.058;15.472;2022-11-20T08:51:56;16.73;;;14.97;;
1693;SDS011;844;47.058;15.472;2022-11-20T08:54:26;18.87;;;13.63;;
1693;SDS011;844;47.058;15.472;2022-11-20T08:57:02;16.37;;;14.43;;
1693;SDS011;844;47.058;15.472;2022-11-20T08:59:32;18.17;;;13.73;;
1693;SDS011;844;47.058;15.472;2022-11-20T09:02:21;16.80;;;13.87;;
1693;SDS011;844;47.058;15.472;2022-11-20T09:04:51;15.77;;;14.00;;
1693;SDS011;844;47.058;15.472;2022-11-20T09:07:21;17.13;;;13.90;;
1693;SDS011;844;47.058;15.472;2022-11-20T09:09:51;17.30;;;15.47;;
1693;SDS011;844;47.058;15.472;2022-11-20T09:12:43;19.70;;;14.87;;
1693;SDS011;844;47.058;15.472;2022-11-20T09:15:12;19.43;;;14.10;;
1693;SDS011;844;47.058;15.472;2022-11-20T09:17:46;19.13;;;15.97;;
1693;SDS011;844;47.058;15.472;2022-11-20T09:20:20;18.53;;;14.27;;
1693;SDS011;844;47.058;15.472;2022-11-20T09:22:49;19.07;;;15.47;;
1693;SDS011;844;47.058;15.472;2022-11-20T09:25:20;17.47;;;15.60;;
1693;SDS011;844;47.058;15.472;2022-11-20T09:27:55;15.47;;;13.77;;
1693;SDS011;844;47.058;15.472;2022-11-20T09:30:25;16.17;;;14.50;;
1693;SDS011;844;47.058;15.472;2022-11-20T09:32:55;16.63;;;14.10;;
1693;SDS011;844;47.058;15.472;2022-11-20T09:35:25;15.90;;;13.20;;
1693;SDS011;844;47.058;15.472;2022-11-20T09:37:55;16.90;;;13.30;;
1693;SDS011;844;47.058;15.472;2022-11-20T09:40:26;15.60;;;13.17;;
1693;SDS011;844;47.058;15.472;2022-11-20T09:42:59;16.30;;;14.70;;
1693;SDS011;844;47.058;15.472;2022-11-20T09:45:37;14.70;;;13.30;;
1693;SDS011;844;47.058;15.472;2022-11-20T09:48:19;14.67;;;13.17;;
1693;SDS011;844;47.058;15.472;2022-11-20T09:50:56;16.50;;;14.80;;
1693;SDS011;844;47.058;15.472;2022-11-20T09:53:32;15.67;;;13.87;;
1693;SDS011;844;47.058;15.472;2022-11-20T09:56:08;14.57;;;13.07;;
1693;SDS011;844;47.058;15.472;2022-11-20T09:58:44;14.67;;;13.03;;
1693;SDS011;844;47.058;15.472;2022-11-20T10:01:16;16.57;;;12.80;;
1693;SDS011;844;47.058;15.472;2022-11-20T10:03:53;16.43;;;14.73;;
1693;SDS011;844;47.058;15.472;2022-11-20T10:06:28;15.63;;;13.33;;
1693;SDS011;844;47.058;15.472;2022-11-20T10:09:02;15.73;;;13.77;;
1693;SDS011;844;47.058;15.472;2022-11-20T10:11:39;17.53;;;14.37;;
1693;SDS011;844;47.058;15.472;2022-11-20T10:14:24;16.30;;;14.80;;
1693;SDS011;844;47.058;15.472;2022-11-20T10:17:00;14.50;;;13.17;;
1693;SDS011;844;47.058;15.472;2022-11-20T10:19:45;13.30;;;12.00;;
1693;SDS011;844;47.058;15.472;2022-11-20T10:22:26;14.13;;;12.40;;
1693;SDS011;844;47.058;15.472;2022-11-20T10:25:11;13.80;;;12.10;;
1693;SDS011;844;47.058;15.472;2022-11-20T10:30:59;11.80;;;10.70;;
1693;SDS011;844;47.058;15.472;2022-11-20T10:33:31;11.90;;;10.70;;
1693;SDS011;844;47.058;15.472;2022-11-20T10:36:24;13.60;;;12.10;;
1693;SDS011;844;47.058;15.472;2022-11-20T10:39:01;12.97;;;11.50;;
1693;SDS011;844;47.058;15.472;2022-11-20T10:41:36;12.70;;;11.40;;
1693;SDS011;844;47.058;15.472;2022-11-20T10:44:12;12.50;;;11.40;;
1693;SDS011;844;47.058;15.472;2022-11-20T10:47:09;14.13;;;11.83;;
1693;SDS011;844;47.058;15.472;2022-11-20T10:49:42;15.53;;;13.67;;
1693;SDS011;844;47.058;15.472;2022-11-20T10:52:16;16.17;;;13.13;;
1693;SDS011;844;47.058;15.472;2022-11-20T10:54:49;13.50;;;12.20;;
1693;SDS011;844;47.058;15.472;2022-11-20T10:57:31;14.23;;;12.83;;
1693;SDS011;844;47.058;15.472;2022-11-20T11:00:13;16.70;;;15.03;;
1693;SDS011;844;47.058;15.472;2022-11-20T11:02:46;16.03;;;14.13;;
1693;SDS011;844;47.058;15.472;2022-11-20T11:05:18;17.23;;;15.40;;
1693;SDS011;844;47.058;15.472;2022-11-20T11:07:52;18.27;;;16.37;;
1693;SDS011;844;47.058;15.472;2022-11-20T11:10:26;16.80;;;15.10;;
1693;SDS011;844;47.058;15.472;2022-11-20T11:12:59;17.67;;;15.87;;
1693;SDS011;844;47.058;15.472;2022-11-20T11:15:30;17.27;;;15.47;;
1693;SDS011;844;47.058;15.472;2022-11-20T11:18:08;17.03;;;15.23;;
1693;SDS011;844;47.058;15.472;2022-11-20T11:20:38;16.00;;;14.30;;
1693;SDS011;844;47.058;15.472;2022-11-20T11:23:26;19.37;;;15.17;;
1693;SDS011;844;47.058;15.472;2022-11-20T11:26:01;16.57;;;14.87;;
1693;SDS011;844;47.058;15.472;2022-11-20T11:28:32;17.37;;;15.67;;
1693;SDS011;844;47.058;15.472;2022-11-20T11:31:02;16.47;;;14.83;;
1693;SDS011;844;47.058;15.472;2022-11-20T11:33:33;16.83;;;14.60;;
1693;SDS011;844;47.058;15.472;2022-11-20T11:36:03;21.17;;;18.97;;
1693;SDS011;844;47.058;15.472;2022-11-20T11:38:43;17.60;;;15.80;;
1693;SDS011;844;47.058;15.472;2022-11-20T11:41:15;16.10;;;14.40;;
1693;SDS011;844;47.058;15.472;2022-11-20T11:43:51;15.63;;;14.13;;
1693;SDS011;844;47.058;15.472;2022-11-20T11:46:38;15.43;;;13.60;;
1693;SDS011;844;47.058;15.472;2022-11-20T11:49:23;14.23;;;12.80;;
1693;SDS011;844;47.058;15.472;2022-11-20T11:52:02;16.43;;;14.80;;
1693;SDS011;844;47.058;15.472;2022-11-20T11:54:35;16.60;;;14.90;;
1693;SDS011;844;47.058;15.472;2022-11-20T11:57:10;17.70;;;15.80;;
1693;SDS011;844;47.058;15.472;2022-11-20T11:59:48;16.10;;;14.60;;
1693;SDS011;844;47.058;15.472;2022-11-20T12:02:31;13.97;;;12.10;;
1693;SDS011;844;47.058;15.472;2022-11-20T12:05:08;12.17;;;10.40;;
1693;SDS011;844;47.058;15.472;2022-11-20T12:07:47;13.90;;;11.87;;
1693;SDS011;844;47.058;15.472;2022-11-20T12:10:19;14.47;;;12.90;;
1693;SDS011;844;47.058;15.472;2022-11-20T12:12:55;14.77;;;11.50;;
1693;SDS011;844;47.058;15.472;2022-11-20T12:15:30;11.77;;;10.67;;
1693;SDS011;844;47.058;15.472;2022-11-20T12:18:01;13.50;;;12.20;;
1693;SDS011;844;47.058;15.472;2022-11-20T12:20:51;12.17;;;10.87;;
1693;SDS011;844;47.058;15.472;2022-11-20T12:23:35;10.87;;;9.87;;
1693;SDS011;844;47.058;15.472;2022-11-20T12:26:15;11.00;;;9.57;;
1693;SDS011;844;47.058;15.472;2022-11-20T12:28:53;10.43;;;9.43;;
1693;SDS011;844;47.058;15.472;2022-11-20T12:31:35;9.50;;;8.60;;
1693;SDS011;844;47.058;15.472;2022-11-20T12:34:40;7.87;;;7.07;;
1693;SDS011;844;47.058;15.472;2022-11-20T12:37:21;9.27;;;8.37;;
1693;SDS011;844;47.058;15.472;2022-11-20T12:39:58;8.07;;;6.60;;
1693;SDS011;844;47.058;15.472;2022-11-20T12:42:52;9.57;;;7.33;;
1693;SDS011;844;47.058;15.472;2022-11-20T12:45:59;6.60;;;6.00;;
1693;SDS011;844;47.058;15.472;2022-11-20T12:48:42;6.53;;;5.67;;
1693;SDS011;844;47.058;15.472;2022-11-20T12:51:31;6.77;;;6.17;;
1693;SDS011;844;47.058;15.472;2022-11-20T12:54:17;6.00;;;5.40;;
1693;SDS011;844;47.058;15.472;2022-11-20T12:57:14;8.83;;;7.97;;
1693;SDS011;844;47.058;15.472;2022-11-20T12:59:55;9.80;;;8.80;;
1693;SDS011;844;47.058;15.472;2022-11-20T13:02:41;8.33;;;7.53;;
1693;SDS011;844;47.058;15.472;2022-11-20T13:05:44;8.30;;;7.60;;
1693;SDS011;844;47.058;15.472;2022-11-20T13:08:22;7.83;;;7.07;;
1693;SDS011;844;47.058;15.472;2022-11-20T13:10:59;6.17;;;5.57;;
1693;SDS011;844;47.058;15.472;2022-11-20T13:13:34;6.17;;;5.57;;
1693;SDS011;844;47.058;15.472;2022-11-20T13:16:10;4.40;;;4.00;;
1693;SDS011;844;47.058;15.472;2022-11-20T13:18:44;3.70;;;3.30;;
1693;SDS011;844;47.058;15.472;2022-11-20T13:21:15;4.83;;;4.30;;
1693;SDS011;844;47.058;15.472;2022-11-20T13:23:46;4.20;;;3.80;;
1693;SDS011;844;47.058;15.472;2022-11-20T13:26:20;4.53;;;3.83;;
1693;SDS011;844;47.058;15.472;2022-11-20T13:28:59;6.50;;;5.23;;
1693;SDS011;844;47.058;15.472;2022-11-20T13:31:45;4.17;;;3.70;;
1693;SDS011;844;47.058;15.472;2022-11-20T13:34:22;4.23;;;3.53;;
1693;SDS011;844;47.058;15.472;2022-11-20T13:36:55;4.50;;;4.10;;
1693;SDS011;844;47.058;15.472;2022-11-20T13:39:30;4.53;;;3.80;;
1693;SDS011;844;47.058;15.472;2022-11-20T13:42:20;3.50;;;3.20;;
1693;SDS011;844;47.058;15.472;2022-11-20T13:44:54;4.80;;;4.17;;
1693;SDS011;844;47.058;15.472;2022-11-20T13:47:30;4.03;;;3.73;;
1693;SDS011;844;47.058;15.472;2022-11-20T13:49:59;4.90;;;4.40;;
1693;SDS011;844;47.058;15.472;2022-11-20T13:52:37;4.67;;;3.97;;
1693;SDS011;844;47.058;15.472;2022-11-20T13:55:12;5.13;;;4.63;;
1693;SDS011;844;47.058;15.472;2022-11-20T14:00:41;5.50;;;4.93;;
1693;SDS011;844;47.058;15.472;2022-11-20T14:03:15;4.90;;;4.50;;
1693;SDS011;844;47.058;15.472;2022-11-20T14:06:11;6.97;;;6.27;;
1693;SDS011;844;47.058;15.472;2022-11-20T14:08:44;6.37;;;5.77;;
1693;SDS011;844;47.058;15.472;2022-11-20T14:11:16;5.10;;;4.60;;
1693;SDS011;844;47.058;15.472;2022-11-20T14:13:59;6.97;;;5.43;;
1693;SDS011;844;47.058;15.472;2022-11-20T14:16:31;6.07;;;5.47;;
1693;SDS011;844;47.058;15.472;2022-11-20T14:24:47;5.27;;;4.70;;
1693;SDS011;844;47.058;15.472;2022-11-20T14:27:20;5.97;;;5.37;;
1693;SDS011;844;47.058;15.472;2022-11-20T14:29:52;5.73;;;5.17;;
1693;SDS011;844;47.058;15.472;2022-11-20T14:32:23;5.50;;;4.77;;
1693;SDS011;844;47.058;15.472;2022-11-20T14:34:57;5.47;;;4.80;;
1693;SDS011;844;47.058;15.472;2022-11-20T14:37:32;6.63;;;6.03;;
1693;SDS011;844;47.058;15.472;2022-11-20T14:40:20;6.23;;;5.73;;
1693;SDS011;844;47.058;15.472;2022-11-20T14:42:53;5.77;;;5.17;;
1693;SDS011;844;47.058;15.472;2022-11-20T14:45:25;8.07;;;5.77;;
1693;SDS011;844;47.058;15.472;2022-11-20T14:47:56;7.47;;;5.93;;
1693;SDS011;844;47.058;15.472;2022-11-20T14:50:27;6.90;;;6.30;;
1693;SDS011;844;47.058;15.472;2022-11-20T14:52:58;6.93;;;6.33;;
1693;SDS011;844;47.058;15.472;2022-11-20T14:55:29;6.80;;;6.20;;
1693;SDS011;844;47.058;15.472;2022-11-20T14:58:01;7.27;;;6.57;;
1693;SDS011;844;47.058;15.472;2022-11-20T15:00:34;6.57;;;5.93;;
1693;SDS011;844;47.058;15.472;2022-11-20T15:03:13;8.43;;;7.63;;
1693;SDS011;844;47.058;15.472;2022-11-20T15:05:45;9.43;;;7.60;;
1693;SDS011;844;47.058;15.472;2022-11-20T15:08:15;6.93;;;6.33;;
1693;SDS011;844;47.058;15.472;2022-11-20T15:10:46;7.30;;;6.70;;
1693;SDS011;844;47.058;15.472;2022-11-20T15:13:18;7.37;;;6.63;;
1693;SDS011;844;47.058;15.472;2022-11-20T15:15:56;7.77;;;7.00;;
1693;SDS011;844;47.058;15.472;2022-11-20T15:18:27;7.37;;;6.67;;
1693;SDS011;844;47.058;15.472;2022-11-20T15:21:00;8.20;;;7.50;;
1693;SDS011;844;47.058;15.472;2022-11-20T15:23:31;8.43;;;7.70;;
1693;SDS011;844;47.058;15.472;2022-11-20T15:26:01;8.30;;;7.40;;
1693;SDS011;844;47.058;15.472;2022-11-20T15:28:34;7.87;;;7.17;;
1693;SDS011;844;47.058;15.472;2022-11-20T15:31:09;7.40;;;6.70;;
1693;SDS011;844;47.058;15.472;2022-11-20T15:33:40;9.13;;;8.23;;
1693;SDS011;844;47.058;15.472;2022-11-20T15:36:10;8.60;;;7.43;;
1693;SDS011;844;47.058;15.472;2022-11-20T15:38:41;9.40;;;8.03;;
1693;SDS011;844;47.058;15.472;2022-11-20T15:41:11;10.07;;;8.93;;
1693;SDS011;844;47.058;15.472;2022-11-20T15:43:40;9.27;;;8.37;;